sensor_id;sensor_type;location;lat;lon;timestamp;pressure;altitude;pressure_sealevel;temperature;humidity
27294;BME280;14785;52.556;13.430;2022-11-15T00:00:45;100696.28;;;9.84;100.00
27294;BME280;14785;52.556;13.430;2022-11-15T00:03:13;100693.38;;;9.60;100.00
27294;BME280;14785;52.556;13.430;2022-11-15T00:05:39;100689.06;;;9.77;100.00
27294;BME280;14785;52.556;13.430;2022-11-15T00:08:05;100692.94;;;9.37;100.00
27294;BME280;14785;52.556;13.430;2022-11-15T00:10:30;100708.84;;;9.47;100.00
27294;BME280;14785;52.556;13.430;2022-11-15T00:12:55;100699.09;;;9.83;100.00
27294;BME280;14785;52.556;13.430;2022-11-15T00:15:21;100691.03;;;9.57;100.00
27294;BME280;14785;52.556;13.430;2022-11-15T00:17:49;100680.84;;;9.25;100.00
27294;BME280;14785;52.556;13.430;2022-11-15T00:20:16;100684.91;;;8.93;100.00
27294;BME280;14785;52.556;13.430;2022-11-15T00:22:42;100686.00;;;9.00;100.00
27294;BME280;14785;52.556;13.430;2022-11-15T00:25:07;100674.97;;;9.49;100.00
27294;BME280;14785;52.556;13.430;2022-11-15T00:27:33;100665.66;;;8.91;100.00
27294;BME280;14785;52.556;13.430;2022-11-15T00:29:58;100669.78;;;9.30;100.00
27294;BME280;14785;52.556;13.430;2022-11-15T00:32:24;100659.00;;;9.58;100.00
27294;BME280;14785;52.556;13.430;2022-11-15T00:34:49;100678.34;;;9.24;100.00
27294;BME280;14785;52.556;13.430;2022-11-15T00:37:14;100662.38;;;9.06;100.00
27294;BME280;14785;52.556;13.430;2022-11-15T00:39:40;100651.31;;;9.38;100.00
27294;BME280;14785;52.556;13.430;2022-11-15T00:42:05;100652.97;;;9.12;100.00
27294;BME280;14785;52.556;13.430;2022-11-15T00:44:30;100655.41;;;8.69;100.00
27294;BME280;14785;52.556;13.430;2022-11-15T00:46:56;100662.78;;;8.75;100.00
27294;BME280;14785;52.556;13.430;2022-11-15T00:49:21;100656.44;;;8.95;100.00
27294;BME280;14785;52.556;13.430;2022-11-15T00:51:46;100656.91;;;8.81;100.00
27294;BME280;14785;52.556;13.430;2022-11-15T00:54:12;100648.28;;;8.69;100.00
27294;BME280;14785;52.556;13.430;2022-11-15T00:56:37;100648.84;;;9.00;100.00
27294;BME280;14785;52.556;13.430;2022-11-15T00:59:03;100662.78;;;9.11;100.00
27294;BME280;14785;52.556;13.430;2022-11-15T01:01:28;100642.03;;;8.97;100.00
27294;BME280;14785;52.556;13.430;2022-11-15T01:03:53;100650.41;;;9.02;100.00
27294;BME280;14785;52.556;13.430;2022-11-15T01:06:19;100657.59;;;8.83;100.00
27294;BME280;14785;52.556;13.430;2022-11-15T01:08:44;100651.16;;;8.85;100.00
27294;BME280;14785;52.556;13.430;2022-11-15T01:11:11;100643.16;;;8.95;100.00
27294;BME280;14785;52.556;13.430;2022-11-15T01:13:38;100644.16;;;8.57;100.00
27294;BME280;14785;52.556;13.430;2022-11-15T01:16:14;100649.69;;;8.64;100.00
27294;BME280;14785;52.556;13.430;2022-11-15T01:18:40;100649.22;;;8.32;100.00
27294;BME280;14785;52.556;13.430;2022-11-15T01:21:08;100639.00;;;8.37;100.00
27294;BME280;14785;52.556;13.430;2022-11-15T01:23:33;100640.13;;;8.44;100.00
27294;BME280;14785;52.556;13.430;2022-11-15T01:26:00;100633.09;;;8.62;100.00
27294;BME280;14785;52.556;13.430;2022-11-15T01:28:31;100621.25;;;8.56;100.00
27294;BME280;14785;52.556;13.430;2022-11-15T01:31:04;100621.19;;;8.20;100.00
27294;BME280;14785;52.556;13.430;2022-11-15T01:33:30;100619.31;;;8.49;100.00
27294;BME280;14785;52.556;13.430;2022-11-15T01:35:55;100627.59;;;8.82;100.00
27294;BME280;14785;52.556;13.430;2022-11-15T01:38:22;100603.88;;;8.71;100.00
27294;BME280;14785;52.556;13.430;2022-11-15T01:40:48;100606.25;;;8.38;100.00
27294;BME280;14785;52.556;13.430;2022-11-15T01:45:49;100607.41;;;8.07;100.00
27294;BME280;14785;52.556;13.430;2022-11-15T01:48:17;100601.69;;;8.11;100.00
27294;BME280;14785;52.556;13.430;2022-11-15T01:50:42;100597.09;;;8.04;100.00
27294;BME280;14785;52.556;13.430;2022-11-15T01:53:08;100597.53;;;7.90;100.00
27294;BME280;14785;52.556;13.430;2022-11-15T01:55:35;100588.72;;;7.99;100.00
27294;BME280;14785;52.556;13.430;2022-11-15T01:58:04;100589.44;;;8.01;100.00
27294;BME280;14785;52.556;13.430;2022-11-15T02:00:31;100591.19;;;8.19;100.00
27294;BME280;14785;52.556;13.430;2022-11-15T02:02:57;100589.28;;;8.02;100.00
27294;BME280;14785;52.556;13.430;2022-11-15T02:05:22;100579.78;;;8.00;100.00
27294;BME280;14785;52.556;13.430;2022-11-15T02:07:48;100577.03;;;7.82;100.00
27294;BME280;14785;52.556;13.430;2022-11-15T02:10:18;100572.31;;;7.76;100.00
27294;BME280;14785;52.556;13.430;2022-11-15T02:12:45;100573.91;;;8.15;100.00
27294;BME280;14785;52.556;13.430;2022-11-15T02:15:11;100573.69;;;7.90;100.00
27294;BME280;14785;52.556;13.430;2022-11-15T02:18:05;100577.97;;;8.29;100.00
27294;BME280;14785;52.556;13.430;2022-11-15T02:20:52;100571.69;;;8.11;100.00
27294;BME280;14785;52.556;13.430;2022-11-15T02:31:58;100581.44;;;8.10;100.00
27294;BME280;14785;52.556;13.430;2022-11-15T02:34:52;100580.34;;;7.94;100.00
27294;BME280;14785;52.556;13.430;2022-11-15T02:37:36;100576.19;;;7.91;100.00
27294;BME280;14785;52.556;13.430;2022-11-15T02:40:17;100580.34;;;7.94;100.00
27294;BME280;14785;52.556;13.430;2022-11-15T02:43:04;100582.31;;;8.01;100.00
27294;BME280;14785;52.556;13.430;2022-11-15T02:45:57;100567.66;;;8.26;100.00
27294;BME280;14785;52.556;13.430;2022-11-15T02:48:25;100570.84;;;8.20;100.00
27294;BME280;14785;52.556;13.430;2022-11-15T02:50:51;100564.81;;;8.37;100.00
27294;BME280;14785;52.556;13.430;2022-11-15T02:53:17;100554.94;;;8.20;100.00
27294;BME280;14785;52.556;13.430;2022-11-15T02:55:45;100555.53;;;8.60;100.00
27294;BME280;14785;52.556;13.430;2022-11-15T03:01:03;100550.44;;;8.39;100.00
27294;BME280;14785;52.556;13.430;2022-11-15T03:06:22;100547.47;;;8.52;100.00
27294;BME280;14785;52.556;13.430;2022-11-15T03:11:48;100546.84;;;8.31;100.00
27294;BME280;14785;52.556;13.430;2022-11-15T03:14:32;100559.06;;;8.78;100.00
27294;BME280;14785;52.556;13.430;2022-11-15T03:19:43;100553.63;;;9.24;100.00
27294;BME280;14785;52.556;13.430;2022-11-15T03:22:12;100554.25;;;8.64;100.00
27294;BME280;14785;52.556;13.430;2022-11-15T03:24:40;100550.94;;;8.52;100.00
27294;BME280;14785;52.556;13.430;2022-11-15T03:27:10;100552.75;;;8.52;100.00
27294;BME280;14785;52.556;13.430;2022-11-15T03:29:47;100556.06;;;8.27;100.00
27294;BME280;14785;52.556;13.430;2022-11-15T03:32:20;100549.66;;;8.20;100.00
27294;BME280;14785;52.556;13.430;2022-11-15T03:34:51;100547.13;;;8.28;100.00
27294;BME280;14785;52.556;13.430;2022-11-15T03:37:21;100542.69;;;8.19;100.00
27294;BME280;14785;52.556;13.430;2022-11-15T03:39:47;100548.00;;;8.19;100.00
27294;BME280;14785;52.556;13.430;2022-11-15T03:42:34;100551.88;;;8.15;100.00
27294;BME280;14785;52.556;13.430;2022-11-15T03:45:23;100548.56;;;8.03;100.00
27294;BME280;14785;52.556;13.430;2022-11-15T03:48:03;100538.13;;;8.02;100.00
27294;BME280;14785;52.556;13.430;2022-11-15T03:50:31;100540.47;;;8.14;100.00
27294;BME280;14785;52.556;13.430;2022-11-15T03:52:57;100543.78;;;8.16;100.00
27294;BME280;14785;52.556;13.430;2022-11-15T03:55:23;100538.28;;;7.91;100.00
27294;BME280;14785;52.556;13.430;2022-11-15T03:57:50;100533.25;;;7.97;100.00
27294;BME280;14785;52.556;13.430;2022-11-15T04:00:17;100534.63;;;8.01;100.00
27294;BME280;14785;52.556;13.430;2022-11-15T04:02:42;100541.34;;;8.05;100.00
27294;BME280;14785;52.556;13.430;2022-11-15T04:05:08;100542.16;;;8.06;100.00
27294;BME280;14785;52.556;13.430;2022-11-15T04:07:33;100542.97;;;8.16;100.00
27294;BME280;14785;52.556;13.430;2022-11-15T04:09:59;100531.38;;;8.17;100.00
27294;BME280;14785;52.556;13.430;2022-11-15T04:12:28;100529.38;;;7.92;100.00
27294;BME280;14785;52.556;13.430;2022-11-15T04:15:01;100527.38;;;8.03;100.00
27294;BME280;14785;52.556;13.430;2022-11-15T04:18:00;100536.31;;;7.93;100.00
27294;BME280;14785;52.556;13.430;2022-11-15T04:20:28;100526.81;;;8.00;100.00
27294;BME280;14785;52.556;13.430;2022-11-15T04:23:17;100531.69;;;8.14;100.00
27294;BME280;14785;52.556;13.430;2022-11-15T04:26:03;100529.03;;;8.14;100.00
27294;BME280;14785;52.556;13.430;2022-11-15T04:28:29;100519.25;;;8.24;100.00
27294;BME280;14785;52.556;13.430;2022-11-15T04:30:55;100521.22;;;8.12;100.00
27294;BME280;14785;52.556;13.430;2022-11-15T04:33:21;100515.28;;;8.01;100.00
27294;BME280;14785;52.556;13.430;2022-11-15T04:35:47;100524.03;;;8.01;100.00
27294;BME280;14785;52.556;13.430;2022-11-15T04:38:33;100525.16;;;7.99;100.00
27294;BME280;14785;52.556;13.430;2022-11-15T04:40:59;100518.72;;;8.11;100.00
27294;BME280;14785;52.556;13.430;2022-11-15T04:43:24;100522.94;;;8.04;100.00
27294;BME280;14785;52.556;13.430;2022-11-15T04:45:50;100520.38;;;8.12;100.00
27294;BME280;14785;52.556;13.430;2022-11-15T04:48:15;100523.19;;;8.10;100.00
27294;BME280;14785;52.556;13.430;2022-11-15T04:50:41;100518.50;;;7.95;100.00
27294;BME280;14785;52.556;13.430;2022-11-15T04:53:06;100505.75;;;8.08;100.00
27294;BME280;14785;52.556;13.430;2022-11-15T04:55:31;100496.75;;;7.81;100.00
27294;BME280;14785;52.556;13.430;2022-11-15T04:58:01;100500.75;;;8.05;100.00
27294;BME280;14785;52.556;13.430;2022-11-15T05:00:28;100505.88;;;8.16;100.00
27294;BME280;14785;52.556;13.430;2022-11-15T05:02:54;100506.00;;;8.24;100.00
27294;BME280;14785;52.556;13.430;2022-11-15T05:05:38;100506.06;;;8.41;100.00
27294;BME280;14785;52.556;13.430;2022-11-15T05:08:03;100511.44;;;8.59;100.00
27294;BME280;14785;52.556;13.430;2022-11-15T05:10:29;100514.41;;;8.56;100.00
27294;BME280;14785;52.556;13.430;2022-11-15T05:12:55;100506.63;;;8.72;100.00
27294;BME280;14785;52.556;13.430;2022-11-15T05:15:20;100506.59;;;8.99;100.00
27294;BME280;14785;52.556;13.430;2022-11-15T05:17:45;100508.41;;;9.51;100.00
27294;BME280;14785;52.556;13.430;2022-11-15T05:20:11;100505.19;;;9.39;100.00
27294;BME280;14785;52.556;13.430;2022-11-15T05:22:37;100505.38;;;8.93;100.00
27294;BME280;14785;52.556;13.430;2022-11-15T05:25:03;100508.81;;;9.03;100.00
27294;BME280;14785;52.556;13.430;2022-11-15T05:27:28;100501.31;;;9.16;100.00
27294;BME280;14785;52.556;13.430;2022-11-15T05:29:54;100506.78;;;8.70;100.00
27294;BME280;14785;52.556;13.430;2022-11-15T05:32:20;100504.81;;;8.72;100.00
27294;BME280;14785;52.556;13.430;2022-11-15T05:34:45;100508.13;;;8.74;100.00
27294;BME280;14785;52.556;13.430;2022-11-15T05:37:11;100501.75;;;9.12;100.00
27294;BME280;14785;52.556;13.430;2022-11-15T05:39:37;100506.50;;;8.91;100.00
27294;BME280;14785;52.556;13.430;2022-11-15T05:42:11;100498.88;;;9.23;100.00
27294;BME280;14785;52.556;13.430;2022-11-15T05:44:38;100504.56;;;9.45;100.00
27294;BME280;14785;52.556;13.430;2022-11-15T05:47:09;100503.34;;;9.57;100.00
27294;BME280;14785;52.556;13.430;2022-11-15T05:49:38;100504.91;;;9.50;100.00
27294;BME280;14785;52.556;13.430;2022-11-15T05:52:07;100499.47;;;9.52;100.00
27294;BME280;14785;52.556;13.430;2022-11-15T05:54:35;100510.00;;;9.61;100.00
27294;BME280;14785;52.556;13.430;2022-11-15T05:57:01;100507.88;;;9.65;100.00
27294;BME280;14785;52.556;13.430;2022-11-15T05:59:31;100504.56;;;9.28;100.00
27294;BME280;14785;52.556;13.430;2022-11-15T06:01:57;100504.41;;;9.47;100.00
27294;BME280;14785;52.556;13.430;2022-11-15T06:04:23;100502.19;;;9.25;100.00
27294;BME280;14785;52.556;13.430;2022-11-15T06:06:48;100510.56;;;9.30;100.00
27294;BME280;14785;52.556;13.430;2022-11-15T06:09:14;100513.59;;;9.35;100.00
27294;BME280;14785;52.556;13.430;2022-11-15T06:11:39;100518.19;;;9.50;100.00
27294;BME280;14785;52.556;13.430;2022-11-15T06:14:05;100514.31;;;9.80;100.00
27294;BME280;14785;52.556;13.430;2022-11-15T06:16:30;100511.38;;;9.91;100.00
27294;BME280;14785;52.556;13.430;2022-11-15T06:18:55;100504.50;;;9.81;100.00
27294;BME280;14785;52.556;13.430;2022-11-15T06:21:21;100515.53;;;9.68;100.00
27294;BME280;14785;52.556;13.430;2022-11-15T06:23:47;100519.00;;;9.86;100.00
27294;BME280;14785;52.556;13.430;2022-11-15T06:26:12;100522.53;;;9.95;100.00
27294;BME280;14785;52.556;13.430;2022-11-15T06:28:38;100531.38;;;10.03;100.00
27294;BME280;14785;52.556;13.430;2022-11-15T06:31:08;100518.63;;;9.81;100.00
27294;BME280;14785;52.556;13.430;2022-11-15T06:33:36;100520.09;;;9.58;100.00
27294;BME280;14785;52.556;13.430;2022-11-15T06:36:07;100518.13;;;9.25;100.00
27294;BME280;14785;52.556;13.430;2022-11-15T06:38:33;100517.03;;;8.83;100.00
27294;BME280;14785;52.556;13.430;2022-11-15T06:41:04;100529.75;;;8.52;100.00
27294;BME280;14785;52.556;13.430;2022-11-15T06:43:30;100531.03;;;8.48;100.00
27294;BME280;14785;52.556;13.430;2022-11-15T06:46:04;100531.19;;;8.47;100.00
27294;BME280;14785;52.556;13.430;2022-11-15T06:48:30;100528.31;;;8.58;100.00
27294;BME280;14785;52.556;13.430;2022-11-15T06:50:57;100528.19;;;8.23;100.00
27294;BME280;14785;52.556;13.430;2022-11-15T06:53:24;100534.84;;;8.36;100.00
27294;BME280;14785;52.556;13.430;2022-11-15T06:55:50;100530.50;;;8.72;100.00
27294;BME280;14785;52.556;13.430;2022-11-15T06:58:15;100529.31;;;8.84;100.00
27294;BME280;14785;52.556;13.430;2022-11-15T07:00:41;100538.84;;;9.21;100.00
27294;BME280;14785;52.556;13.430;2022-11-15T07:03:07;100531.31;;;9.52;100.00
27294;BME280;14785;52.556;13.430;2022-11-15T07:05:33;100529.81;;;9.32;100.00
27294;BME280;14785;52.556;13.430;2022-11-15T07:07:59;100529.81;;;9.49;100.00
27294;BME280;14785;52.556;13.430;2022-11-15T07:10:25;100530.28;;;9.10;100.00
27294;BME280;14785;52.556;13.430;2022-11-15T07:12:52;100541.78;;;9.01;100.00
27294;BME280;14785;52.556;13.430;2022-11-15T07:15:19;100536.84;;;8.79;100.00
27294;BME280;14785;52.556;13.430;2022-11-15T07:17:45;100544.81;;;8.52;100.00
27294;BME280;14785;52.556;13.430;2022-11-15T07:20:11;100548.75;;;8.48;100.00
27294;BME280;14785;52.556;13.430;2022-11-15T07:22:39;100552.88;;;8.60;100.00
27294;BME280;14785;52.556;13.430;2022-11-15T07:25:04;100558.75;;;8.54;100.00
27294;BME280;14785;52.556;13.430;2022-11-15T07:27:30;100560.84;;;8.50;100.00
27294;BME280;14785;52.556;13.430;2022-11-15T07:29:55;100565.16;;;8.88;100.00
27294;BME280;14785;52.556;13.430;2022-11-15T07:32:21;100566.03;;;8.79;100.00
27294;BME280;14785;52.556;13.430;2022-11-15T07:34:46;100564.84;;;8.91;100.00
27294;BME280;14785;52.556;13.430;2022-11-15T07:37:12;100557.91;;;9.07;100.00
27294;BME280;14785;52.556;13.430;2022-11-15T07:39:38;100557.41;;;9.04;100.00
27294;BME280;14785;52.556;13.430;2022-11-15T07:42:03;100551.78;;;9.07;100.00
27294;BME280;14785;52.556;13.430;2022-11-15T07:44:47;100545.16;;;9.38;100.00
27294;BME280;14785;52.556;13.430;2022-11-15T07:47:13;100554.38;;;9.34;100.00
27294;BME280;14785;52.556;13.430;2022-11-15T07:49:38;100543.75;;;9.34;100.00
27294;BME280;14785;52.556;13.430;2022-11-15T07:52:04;100541.19;;;9.07;100.00
27294;BME280;14785;52.556;13.430;2022-11-15T07:54:29;100539.66;;;9.57;100.00
27294;BME280;14785;52.556;13.430;2022-11-15T07:56:55;100543.13;;;9.75;100.00
27294;BME280;14785;52.556;13.430;2022-11-15T07:59:20;100541.03;;;9.61;100.00
27294;BME280;14785;52.556;13.430;2022-11-15T08:01:45;100545.88;;;9.48;100.00
27294;BME280;14785;52.556;13.430;2022-11-15T08:04:11;100539.59;;;9.49;100.00
27294;BME280;14785;52.556;13.430;2022-11-15T08:06:37;100539.66;;;9.57;100.00
27294;BME280;14785;52.556;13.430;2022-11-15T08:09:04;100532.53;;;9.40;100.00
27294;BME280;14785;52.556;13.430;2022-11-15T08:11:30;100528.31;;;9.47;100.00
27294;BME280;14785;52.556;13.430;2022-11-15T08:13:55;100539.72;;;9.83;100.00
27294;BME280;14785;52.556;13.430;2022-11-15T08:16:21;100535.19;;;9.57;100.00
27294;BME280;14785;52.556;13.430;2022-11-15T08:18:46;100534.06;;;9.60;100.00
27294;BME280;14785;52.556;13.430;2022-11-15T08:21:14;100533.44;;;9.66;100.00
27294;BME280;14785;52.556;13.430;2022-11-15T08:23:43;100536.47;;;9.71;100.00
27294;BME280;14785;52.556;13.430;2022-11-15T08:26:09;100528.13;;;9.66;100.00
27294;BME280;14785;52.556;13.430;2022-11-15T08:28:34;100528.50;;;9.53;100.00
27294;BME280;14785;52.556;13.430;2022-11-15T08:31:02;100531.09;;;9.63;100.00
27294;BME280;14785;52.556;13.430;2022-11-15T08:33:27;100533.97;;;9.69;100.00
27294;BME280;14785;52.556;13.430;2022-11-15T08:35:56;100533.25;;;9.85;100.00
27294;BME280;14785;52.556;13.430;2022-11-15T08:38:22;100531.19;;;9.97;100.00
27294;BME280;14785;52.556;13.430;2022-11-15T08:40:48;100530.72;;;10.01;100.00
27294;BME280;14785;52.556;13.430;2022-11-15T08:43:15;100532.75;;;10.33;100.00
27294;BME280;14785;52.556;13.430;2022-11-15T08:45:40;100530.47;;;10.38;100.00
27294;BME280;14785;52.556;13.430;2022-11-15T08:48:06;100525.59;;;10.25;100.00
27294;BME280;14785;52.556;13.430;2022-11-15T08:50:31;100528.44;;;10.32;100.00
27294;BME280;14785;52.556;13.430;2022-11-15T08:52:57;100529.41;;;10.56;100.00
27294;BME280;14785;52.556;13.430;2022-11-15T08:55:22;100526.59;;;10.66;100.00
27294;BME280;14785;52.556;13.430;2022-11-15T08:57:48;100517.31;;;11.19;100.00
27294;BME280;14785;52.556;13.430;2022-11-15T09:00:13;100525.63;;;11.24;100.00
27294;BME280;14785;52.556;13.430;2022-11-15T09:02:39;100525.84;;;10.81;100.00
27294;BME280;14785;52.556;13.430;2022-11-15T09:05:06;100531.16;;;10.81;100.00
27294;BME280;14785;52.556;13.430;2022-11-15T09:07:32;100535.94;;;11.27;100.00
27294;BME280;14785;52.556;13.430;2022-11-15T09:09:57;100533.97;;;11.45;100.00
27294;BME280;14785;52.556;13.430;2022-11-15T09:12:24;100530.56;;;10.95;100.00
27294;BME280;14785;52.556;13.430;2022-11-15T09:14:49;100535.31;;;11.25;100.00
27294;BME280;14785;52.556;13.430;2022-11-15T09:17:15;100517.59;;;11.00;100.00
27294;BME280;14785;52.556;13.430;2022-11-15T09:19:41;100533.84;;;10.81;100.00
27294;BME280;14785;52.556;13.430;2022-11-15T09:22:07;100529.19;;;10.91;100.00
27294;BME280;14785;52.556;13.430;2022-11-15T09:24:32;100522.22;;;10.90;100.00
27294;BME280;14785;52.556;13.430;2022-11-15T09:26:58;100526.13;;;10.70;100.00
27294;BME280;14785;52.556;13.430;2022-11-15T09:29:23;100523.88;;;10.83;100.00
27294;BME280;14785;52.556;13.430;2022-11-15T09:31:51;100524.00;;;11.55;100.00
27294;BME280;14785;52.556;13.430;2022-11-15T09:34:17;100528.66;;;11.61;100.00
27294;BME280;14785;52.556;13.430;2022-11-15T09:36:42;100527.34;;;11.74;100.00
27294;BME280;14785;52.556;13.430;2022-11-15T09:39:08;100527.69;;;11.79;100.00
27294;BME280;14785;52.556;13.430;2022-11-15T09:44:39;100527.25;;;12.38;100.00
27294;BME280;14785;52.556;13.430;2022-11-15T09:47:36;100528.44;;;12.35;100.00
27294;BME280;14785;52.556;13.430;2022-11-15T09:50:10;100534.88;;;12.57;100.00
27294;BME280;14785;52.556;13.430;2022-11-15T09:52:37;100516.47;;;12.70;100.00
27294;BME280;14785;52.556;13.430;2022-11-15T09:55:05;100521.97;;;13.15;100.00
27294;BME280;14785;52.556;13.430;2022-11-15T09:57:37;100517.72;;;12.90;100.00
27294;BME280;14785;52.556;13.430;2022-11-15T10:00:20;100517.56;;;13.22;100.00
27294;BME280;14785;52.556;13.430;2022-11-15T10:02:58;100505.81;;;13.31;100.00
27294;BME280;14785;52.556;13.430;2022-11-15T10:05:28;100511.28;;;13.60;100.00
27294;BME280;14785;52.556;13.430;2022-11-15T10:08:28;100512.78;;;13.77;100.00
27294;BME280;14785;52.556;13.430;2022-11-15T10:11:01;100509.34;;;13.91;100.00
27294;BME280;14785;52.556;13.430;2022-11-15T10:13:32;100503.44;;;13.81;100.00
27294;BME280;14785;52.556;13.430;2022-11-15T10:27:35;100483.56;;;15.63;100.00
27294;BME280;14785;52.556;13.430;2022-11-15T10:30:01;100482.31;;;16.14;100.00
27294;BME280;14785;52.556;13.430;2022-11-15T10:32:29;100477.06;;;16.34;100.00
27294;BME280;14785;52.556;13.430;2022-11-15T10:34:58;100468.41;;;16.38;100.00
27294;BME280;14785;52.556;13.430;2022-11-15T10:37:31;100468.94;;;16.55;100.00
27294;BME280;14785;52.556;13.430;2022-11-15T10:40:05;100464.84;;;16.65;100.00
27294;BME280;14785;52.556;13.430;2022-11-15T10:42:30;100468.59;;;16.37;100.00
27294;BME280;14785;52.556;13.430;2022-11-15T10:44:56;100459.59;;;16.44;100.00
27294;BME280;14785;52.556;13.430;2022-11-15T10:50:27;100451.47;;;17.58;100.00
27294;BME280;14785;52.556;13.430;2022-11-15T10:52:52;100445.88;;;17.79;100.00
27294;BME280;14785;52.556;13.430;2022-11-15T10:55:30;100439.72;;;18.55;100.00
27294;BME280;14785;52.556;13.430;2022-11-15T11:00:36;100427.66;;;17.75;100.00
27294;BME280;14785;52.556;13.430;2022-11-15T11:03:23;100436.06;;;18.17;100.00
27294;BME280;14785;52.556;13.430;2022-11-15T11:06:03;100424.16;;;19.02;100.00
27294;BME280;14785;52.556;13.430;2022-11-15T11:08:29;100423.50;;;18.68;100.00
27294;BME280;14785;52.556;13.430;2022-11-15T11:10:59;100421.25;;;19.03;100.00
27294;BME280;14785;52.556;13.430;2022-11-15T11:13:33;100420.69;;;19.26;100.00
27294;BME280;14785;52.556;13.430;2022-11-15T11:16:14;100417.47;;;19.11;100.00
27294;BME280;14785;52.556;13.430;2022-11-15T11:21:44;100414.13;;;19.15;100.00
27294;BME280;14785;52.556;13.430;2022-11-15T11:24:18;100422.41;;;18.82;100.00
27294;BME280;14785;52.556;13.430;2022-11-15T11:27:07;100410.13;;;18.86;100.00
27294;BME280;14785;52.556;13.430;2022-11-15T11:29:48;100404.41;;;19.08;100.00
27294;BME280;14785;52.556;13.430;2022-11-15T11:32:48;100409.19;;;18.11;100.00
27294;BME280;14785;52.556;13.430;2022-11-15T11:35:29;100402.25;;;18.91;100.00
27294;BME280;14785;52.556;13.430;2022-11-15T11:43:36;100411.09;;;20.03;100.00
27294;BME280;14785;52.556;13.430;2022-11-15T11:51:05;100401.53;;;18.65;100.00
27294;BME280;14785;52.556;13.430;2022-11-15T11:53:41;100400.63;;;18.84;100.00
27294;BME280;14785;52.556;13.430;2022-11-15T11:56:31;100394.94;;;18.98;100.00
27294;BME280;14785;52.556;13.430;2022-11-15T12:02:24;100399.09;;;19.26;100.00
27294;BME280;14785;52.556;13.430;2022-11-15T12:05:22;100396.13;;;19.65;100.00
27294;BME280;14785;52.556;13.430;2022-11-15T12:07:43;100390.91;;;19.14;100.00
27294;BME280;14785;52.556;13.430;2022-11-15T12:10:36;100381.47;;;19.30;100.00
27294;BME280;14785;52.556;13.430;2022-11-15T12:13:09;100382.22;;;20.04;100.00
27294;BME280;14785;52.556;13.430;2022-11-15T12:15:56;100372.66;;;20.26;100.00
27294;BME280;14785;52.556;13.430;2022-11-15T12:18:22;100373.41;;;20.15;100.00
27294;BME280;14785;52.556;13.430;2022-11-15T12:21:00;100380.09;;;21.08;100.00
27294;BME280;14785;52.556;13.430;2022-11-15T12:23:32;100375.16;;;20.87;100.00
27294;BME280;14785;52.556;13.430;2022-11-15T12:26:05;100377.75;;;20.52;100.00
27294;BME280;14785;52.556;13.430;2022-11-15T12:28:59;100365.34;;;20.92;100.00
27294;BME280;14785;52.556;13.430;2022-11-15T12:34:13;100358.66;;;20.95;100.00
27294;BME280;14785;52.556;13.430;2022-11-15T12:36:43;100367.44;;;20.60;100.00
27294;BME280;14785;52.556;13.430;2022-11-15T12:39:13;100363.66;;;20.32;100.00
27294;BME280;14785;52.556;13.430;2022-11-15T12:41:39;100360.50;;;20.94;100.00
27294;BME280;14785;52.556;13.430;2022-11-15T12:44:11;100367.50;;;20.54;100.00
27294;BME280;14785;52.556;13.430;2022-11-15T12:57:30;100336.56;;;20.68;100.00
27294;BME280;14785;52.556;13.430;2022-11-15T12:59:58;100342.69;;;20.45;100.00
27294;BME280;14785;52.556;13.430;2022-11-15T13:02:27;100332.59;;;20.23;100.00
27294;BME280;14785;52.556;13.430;2022-11-15T13:05:27;100330.63;;;20.12;100.00
27294;BME280;14785;52.556;13.430;2022-11-15T13:15:37;100323.88;;;18.93;100.00
27294;BME280;14785;52.556;13.430;2022-11-15T13:18:33;100320.34;;;18.92;100.00
27294;BME280;14785;52.556;13.430;2022-11-15T13:20:59;100326.66;;;19.05;100.00
27294;BME280;14785;52.556;13.430;2022-11-15T13:23:25;100323.03;;;18.92;100.00
27294;BME280;14785;52.556;13.430;2022-11-15T13:26:13;100326.00;;;19.09;100.00
27294;BME280;14785;52.556;13.430;2022-11-15T13:28:46;100311.91;;;19.07;100.00
27294;BME280;14785;52.556;13.430;2022-11-15T13:31:22;100317.03;;;19.15;100.00
27294;BME280;14785;52.556;13.430;2022-11-15T13:33:48;100312.13;;;19.06;100.00
27294;BME280;14785;52.556;13.430;2022-11-15T13:36:22;100321.72;;;19.02;100.00
27294;BME280;14785;52.556;13.430;2022-11-15T13:41:31;100315.88;;;19.05;100.00
27294;BME280;14785;52.556;13.430;2022-11-15T13:43:58;100315.66;;;19.06;100.00
27294;BME280;14785;52.556;13.430;2022-11-15T13:46:26;100319.53;;;19.17;100.00
27294;BME280;14785;52.556;13.430;2022-11-15T13:48:58;100315.00;;;19.11;100.00
27294;BME280;14785;52.556;13.430;2022-11-15T13:51:41;100314.41;;;18.77;100.00
27294;BME280;14785;52.556;13.430;2022-11-15T13:57:02;100317.66;;;18.86;100.00
27294;BME280;14785;52.556;13.430;2022-11-15T13:59:34;100310.91;;;18.77;100.00
27294;BME280;14785;52.556;13.430;2022-11-15T14:02:52;100316.44;;;18.88;100.00
27294;BME280;14785;52.556;13.430;2022-11-15T14:05:19;100308.28;;;18.64;100.00
27294;BME280;14785;52.556;13.430;2022-11-15T14:07:58;100313.91;;;18.18;100.00
27294;BME280;14785;52.556;13.430;2022-11-15T14:10:30;100303.19;;;18.05;100.00
27294;BME280;14785;52.556;13.430;2022-11-15T14:12:56;100313.56;;;17.95;100.00
27294;BME280;14785;52.556;13.430;2022-11-15T14:15:32;100324.25;;;18.21;100.00